createdAt,value
2022-09-13T00:02:55.680Z,90.38
2022-09-13T00:05:57.934Z,90.63
2022-09-13T00:09:01.738Z,90.56
2022-09-13T00:12:04.400Z,90.54
2022-09-13T00:15:07.105Z,90.45
2022-09-13T00:18:08.775Z,90.70
2022-09-13T00:21:16.759Z,90.95
2022-09-13T00:24:20.215Z,91.42
2022-09-13T00:27:21.888Z,91.65
2022-09-13T00:30:26.521Z,91.42
2022-09-13T00:33:31.199Z,91.68
2022-09-13T00:36:32.923Z,91.77
2022-09-13T00:39:37.132Z,92.09
2022-09-13T00:42:39.033Z,92.17
2022-09-13T00:45:43.290Z,92.44
2022-09-13T00:48:46.979Z,92.51
2022-09-13T00:52:05.348Z,92.23
2022-09-13T00:55:36.007Z,92.36
2022-09-13T00:58:47.233Z,92.34
2022-09-13T01:01:52.404Z,92.49
2022-09-13T01:04:54.218Z,92.09
2022-09-13T01:07:56.614Z,92.32
2022-09-13T01:11:00.286Z,92.37
2022-09-13T01:14:01.964Z,92.28
2022-09-13T01:17:04.242Z,92.30
2022-09-13T01:20:07.928Z,92.45
2022-09-13T01:23:40.881Z,92.38
2022-09-13T01:26:54.641Z,92.61
2022-09-13T01:30:03.298Z,92.69
2022-09-13T01:33:24.074Z,92.60
2022-09-13T01:36:54.980Z,93.16
2022-09-13T01:39:59.371Z,92.45
2022-09-13T01:43:11.886Z,91.97
2022-09-13T01:46:27.030Z,92.52
2022-09-13T01:49:46.181Z,92.51
2022-09-13T01:53:06.328Z,92.24
2022-09-13T01:56:16.402Z,92.00
2022-09-13T01:59:28.409Z,92.46
2022-09-13T02:02:51.266Z,93.42
2022-09-13T02:06:00.141Z,94.11
2022-09-13T02:09:04.793Z,93.90
2022-09-13T02:12:11.205Z,93.89
2022-09-13T02:15:18.905Z,93.62
2022-09-13T02:18:35.470Z,93.50
2022-09-13T02:21:40.085Z,93.52
2022-09-13T02:24:45.627Z,93.77
2022-09-13T02:27:51.571Z,93.72
2022-09-13T02:30:54.021Z,93.69
2022-09-13T02:34:00.634Z,93.76
2022-09-13T02:37:03.318Z,93.93
2022-09-13T02:40:10.485Z,94.03
2022-09-13T02:43:16.192Z,94.29
2022-09-13T02:46:30.085Z,94.49
2022-09-13T02:49:47.532Z,94.46
2022-09-13T02:53:07.953Z,94.41
2022-09-13T02:56:38.657Z,94.49
2022-09-13T02:59:40.601Z,94.33
2022-09-13T03:02:43.870Z,94.27
2022-09-13T03:05:45.602Z,94.38
2022-09-13T03:08:47.328Z,94.36
2022-09-13T03:11:51.930Z,94.49
2022-09-13T03:14:58.234Z,94.21
2022-09-13T03:18:06.186Z,94.22
2022-09-13T03:21:28.134Z,94.05
2022-09-13T03:24:55.603Z,93.97
2022-09-13T03:28:09.389Z,94.07
2022-09-13T03:31:21.243Z,94.02
2022-09-13T03:34:29.455Z,94.12
2022-09-13T03:37:53.808Z,94.23
2022-09-13T03:41:34.259Z,94.31
2022-09-13T03:44:37.226Z,94.35
2022-09-13T03:47:41.007Z,94.50
2022-09-13T03:50:43.601Z,94.81
2022-09-13T03:53:56.503Z,94.76
2022-09-13T03:57:09.842Z,94.33
2022-09-13T04:00:13.752Z,94.24
2022-09-13T04:03:15.804Z,94.29
2022-09-13T04:06:17.672Z,94.38
2022-09-13T04:09:19.426Z,94.44
2022-09-13T04:12:20.949Z,94.55
2022-09-13T04:15:22.799Z,94.72
2022-09-13T04:18:24.748Z,95.00
2022-09-13T04:21:26.458Z,94.87
2022-09-13T04:24:29.489Z,95.06
2022-09-13T04:27:31.339Z,95.39
2022-09-13T04:30:33.078Z,95.60
2022-09-13T04:33:37.415Z,95.91
2022-09-13T04:36:39.691Z,95.74
2022-09-13T04:39:41.483Z,95.62
2022-09-13T04:42:46.321Z,95.87
2022-09-13T04:45:48.227Z,95.90
2022-09-13T04:48:50.991Z,95.98
2022-09-13T04:51:52.720Z,95.82
2022-09-13T04:54:54.773Z,95.93
2022-09-13T04:57:56.581Z,95.88
2022-09-13T05:01:02.776Z,95.93
2022-09-13T05:04:06.248Z,96.00
2022-09-13T05:07:07.877Z,96.40
2022-09-13T05:10:09.693Z,96.74
2022-09-13T05:13:11.862Z,96.98
2022-09-13T05:16:13.563Z,97.26
2022-09-13T05:19:16.161Z,98.28
2022-09-13T05:22:18.138Z,99.33
2022-09-13T05:25:22.963Z,99.76
2022-09-13T05:28:29.383Z,99.63
2022-09-13T05:31:36.651Z,99.03
2022-09-13T05:34:38.482Z,98.49
2022-09-13T05:37:40.257Z,98.16
2022-09-13T05:40:42.202Z,97.60
2022-09-13T05:43:43.974Z,97.44
2022-09-13T05:46:49.448Z,97.41
2022-09-13T05:50:09.499Z,97.21
2022-09-13T05:53:12.471Z,96.70
2022-09-13T05:56:16.888Z,96.77
2022-09-13T05:59:18.946Z,96.99
2022-09-13T06:02:20.904Z,96.87
2022-09-13T06:05:22.706Z,96.38
2022-09-13T06:08:29.268Z,96.19
2022-09-13T06:11:33.774Z,96.50
2022-09-13T06:14:35.814Z,96.65
2022-09-13T06:17:37.832Z,97.13
2022-09-13T06:20:39.826Z,96.66
2022-09-13T06:23:41.717Z,96.26
2022-09-13T06:26:43.995Z,95.32
2022-09-13T06:29:45.874Z,95.64
2022-09-13T06:32:47.523Z,95.30
2022-09-13T06:35:52.074Z,95.44
2022-09-13T06:39:00.804Z,95.11
2022-09-13T06:42:05.882Z,95.30
2022-09-13T06:45:08.119Z,95.07
2022-09-13T06:48:18.678Z,95.62
2022-09-13T06:51:23.166Z,94.65
2022-09-13T06:54:25.038Z,95.18
2022-09-13T06:57:30.531Z,94.28
2022-09-13T07:00:32.964Z,94.78
2022-09-13T07:03:34.779Z,94.76
2022-09-13T07:06:38.498Z,94.02
2022-09-13T07:09:43.462Z,93.43
2022-09-13T07:12:45.269Z,94.03
2022-09-13T07:15:47.209Z,92.78
2022-09-13T07:18:53.545Z,92.74
2022-09-13T07:21:56.699Z,92.73
2022-09-13T07:24:58.689Z,91.88
2022-09-13T07:28:00.456Z,91.06
2022-09-13T07:31:33.114Z,89.54
2022-09-13T07:34:35.372Z,88.04
2022-09-13T07:37:37.210Z,88.02
2022-09-13T07:40:39.264Z,87.07
2022-09-13T07:43:41.873Z,88.26
2022-09-13T07:46:43.850Z,88.83
2022-09-13T07:49:46.896Z,86.30
2022-09-13T07:52:48.592Z,84.57
2022-09-13T07:55:50.363Z,84.18
2022-09-13T07:58:55.104Z,85.62
2022-09-13T08:01:57.402Z,86.14
2022-09-13T08:04:59.522Z,86.87
2022-09-13T08:08:01.460Z,86.27
2022-09-13T08:11:05.304Z,85.36
2022-09-13T08:14:09.092Z,85.82
2022-09-13T08:17:11.048Z,84.09
2022-09-13T08:20:12.806Z,83.74
2022-09-13T08:23:15.049Z,84.25
2022-09-13T08:26:17.131Z,82.97
2022-09-13T08:29:19.013Z,82.99
2022-09-13T08:32:20.764Z,83.61
2022-09-13T08:35:22.637Z,83.07
2022-09-13T08:38:24.602Z,82.06
2022-09-13T08:41:32.197Z,81.30
2022-09-13T08:44:37.613Z,81.87
2022-09-13T08:47:44.780Z,79.20
2022-09-13T08:50:47.617Z,78.52
2022-09-13T08:53:50.577Z,78.24
2022-09-13T08:57:21.330Z,78.38
2022-09-13T09:00:25.007Z,78.74
2022-09-13T09:03:43.128Z,78.50
2022-09-13T09:06:45.276Z,77.99
2022-09-13T09:09:55.036Z,78.32
2022-09-13T09:13:04.094Z,77.57
2022-09-13T09:16:43.089Z,78.49
2022-09-13T09:19:53.959Z,76.56
2022-09-13T09:22:56.054Z,77.18
2022-09-13T09:26:22.228Z,75.86
2022-09-13T09:29:30.051Z,75.85
2022-09-13T09:32:54.085Z,75.76
2022-09-13T09:36:01.238Z,76.10
2022-09-13T09:39:05.354Z,74.97
2022-09-13T09:42:19.769Z,74.93
2022-09-13T09:45:24.157Z,74.58
2022-09-13T09:48:29.876Z,75.23
2022-09-13T09:51:32.495Z,74.42
2022-09-13T09:54:35.304Z,73.21
2022-09-13T09:57:54.268Z,72.72
2022-09-13T10:00:58.155Z,72.83
2022-09-13T10:04:20.981Z,71.76
2022-09-13T10:07:34.553Z,70.46
2022-09-13T10:10:42.606Z,71.55
2022-09-13T10:14:02.598Z,71.63
2022-09-13T10:17:29.971Z,70.69
2022-09-13T10:20:34.956Z,70.74
2022-09-13T10:23:37.342Z,71.05
2022-09-13T10:26:39.634Z,70.47
2022-09-13T10:29:47.982Z,70.31
2022-09-13T10:32:56.115Z,70.10
2022-09-13T10:36:04.493Z,70.25
2022-09-13T10:39:18.530Z,70.33
2022-09-13T10:42:23.796Z,70.29
2022-09-13T10:45:27.877Z,71.21
2022-09-13T10:48:31.412Z,70.74
2022-09-13T10:51:36.968Z,69.25
2022-09-13T10:54:38.624Z,70.24
2022-09-13T10:57:40.481Z,70.08
2022-09-13T11:01:16.197Z,70.11
2022-09-13T11:04:36.981Z,69.73
2022-09-13T11:08:11.365Z,69.79
2022-09-13T11:11:37.567Z,69.64
2022-09-13T11:14:54.892Z,69.56
2022-09-13T11:18:09.601Z,69.15
2022-09-13T11:21:46.734Z,68.48
2022-09-13T11:25:27.995Z,69.15
2022-09-13T11:29:20.019Z,70.10
2022-09-13T11:32:55.896Z,70.69
2022-09-13T11:36:25.119Z,69.83
2022-09-13T11:40:09.539Z,68.73
2022-09-13T11:44:05.906Z,68.48
2022-09-13T11:47:11.691Z,69.04
2022-09-13T11:50:34.432Z,69.42
2022-09-13T11:54:02.060Z,69.32
2022-09-13T11:57:33.299Z,69.21
2022-09-13T12:00:40.681Z,69.11
2022-09-13T12:03:58.212Z,70.00
2022-09-13T12:07:03.602Z,69.29
2022-09-13T12:10:14.162Z,69.25
2022-09-13T12:13:28.137Z,69.04
2022-09-13T12:16:36.075Z,68.41
2022-09-13T12:19:47.090Z,67.64
2022-09-13T12:22:49.705Z,67.31
2022-09-13T12:26:07.869Z,65.47
2022-09-13T12:29:40.965Z,64.31
2022-09-13T12:32:47.533Z,65.40
2022-09-13T12:36:08.342Z,64.79
2022-09-13T12:39:41.229Z,65.77
2022-09-13T12:43:02.743Z,64.69
2022-09-13T12:46:33.896Z,64.09
2022-09-13T12:50:43.034Z,64.43
2022-09-13T12:53:47.616Z,63.05
2022-09-13T12:56:58.368Z,63.91
2022-09-13T13:00:14.233Z,64.04
2022-09-13T13:03:19.301Z,63.54
2022-09-13T13:06:26.241Z,62.73
2022-09-13T13:09:42.449Z,63.78
2022-09-13T13:12:44.817Z,64.10
2022-09-13T13:15:50.066Z,64.56
2022-09-13T13:18:59.659Z,63.66
2022-09-13T13:22:39.197Z,64.38
2022-09-13T13:26:13.596Z,65.01
2022-09-13T13:29:30.025Z,65.48
2022-09-13T13:32:32.332Z,65.11
2022-09-13T13:35:34.372Z,65.03
2022-09-13T13:38:48.194Z,64.22
2022-09-13T13:42:03.902Z,64.54
2022-09-13T13:45:20.118Z,64.48
2022-09-13T13:48:38.215Z,64.13
2022-09-13T13:51:39.973Z,63.80
2022-09-13T13:54:41.636Z,64.39
2022-09-13T13:58:00.160Z,64.51
2022-09-13T14:01:02.580Z,64.12
2022-09-13T14:04:30.283Z,63.60
2022-09-13T14:07:55.194Z,63.56
2022-09-13T14:11:18.862Z,63.86
2022-09-13T14:14:29.830Z,64.20
2022-09-13T14:18:03.938Z,64.32
2022-09-13T14:21:26.768Z,64.14
2022-09-13T14:24:28.437Z,64.12
2022-09-13T14:27:34.524Z,64.14
2022-09-13T14:30:38.433Z,64.03
2022-09-13T14:33:40.542Z,63.38
2022-09-13T14:36:52.575Z,63.42
2022-09-13T14:40:00.566Z,63.91
2022-09-13T14:43:15.453Z,64.05
2022-09-13T14:46:27.977Z,64.46
2022-09-13T14:49:33.920Z,64.23
2022-09-13T14:52:38.534Z,63.84
2022-09-13T14:55:47.771Z,63.91
2022-09-13T14:58:53.310Z,63.73
2022-09-13T15:01:58.541Z,63.87
2022-09-13T15:05:06.359Z,63.86
2022-09-13T15:08:34.904Z,64.02
2022-09-13T15:11:40.275Z,64.08
2022-09-13T15:14:43.607Z,64.64
2022-09-13T15:17:55.574Z,64.70
2022-09-13T15:20:59.649Z,64.77
2022-09-13T15:24:01.653Z,64.90
2022-09-13T15:27:20.931Z,65.15
2022-09-13T15:30:24.592Z,65.11
2022-09-13T15:33:31.946Z,65.29
2022-09-13T15:36:34.134Z,65.39
2022-09-13T15:39:51.773Z,65.50
2022-09-13T15:42:53.622Z,65.57
2022-09-13T15:45:57.290Z,65.88
2022-09-13T15:49:02.090Z,66.09
2022-09-13T15:52:05.767Z,66.21
2022-09-13T15:55:11.938Z,66.39
2022-09-13T15:58:13.738Z,66.48
2022-09-13T16:01:17.025Z,66.48
2022-09-13T16:04:19.415Z,66.44
2022-09-13T16:07:21.707Z,66.53
2022-09-13T16:10:23.754Z,66.71
2022-09-13T16:13:25.420Z,66.77
2022-09-13T16:16:27.157Z,66.86
2022-09-13T16:19:29.675Z,66.96
2022-09-13T16:22:31.636Z,67.06
2022-09-13T16:25:34.983Z,67.27
2022-09-13T16:28:37.016Z,67.45
2022-09-13T16:31:39.120Z,67.58
2022-09-13T16:34:41.062Z,67.74
2022-09-13T16:37:43.090Z,67.90
2022-09-13T16:40:45.717Z,68.04
2022-09-13T16:43:47.831Z,68.22
2022-09-13T16:46:50.016Z,68.47
2022-09-13T16:49:52.656Z,68.76
2022-09-13T16:52:54.699Z,68.87
2022-09-13T16:56:06.931Z,68.90
2022-09-13T16:59:09.799Z,69.03
2022-09-13T17:02:12.692Z,69.22
2022-09-13T17:05:15.185Z,69.43
2022-09-13T17:08:16.928Z,69.56
2022-09-13T17:11:21.406Z,69.78
2022-09-13T17:14:23.378Z,69.77
2022-09-13T17:17:25.920Z,70.18
2022-09-13T17:20:27.702Z,70.33
2022-09-13T17:23:29.571Z,70.46
2022-09-13T17:26:31.594Z,70.71
2022-09-13T17:29:34.899Z,70.88
2022-09-13T17:32:36.775Z,71.15
2022-09-13T17:35:38.985Z,71.42
2022-09-13T17:38:41.909Z,71.57
2022-09-13T17:41:43.840Z,71.63
2022-09-13T17:44:45.536Z,71.74
2022-09-13T17:47:48.043Z,71.91
2022-09-13T17:50:50.315Z,72.03
2022-09-13T17:53:58.804Z,72.45
2022-09-13T17:57:00.592Z,72.59
2022-09-13T18:00:05.505Z,72.77
2022-09-13T18:03:07.376Z,72.74
2022-09-13T18:06:10.424Z,72.91
2022-09-13T18:09:14.244Z,73.17
2022-09-13T18:12:15.906Z,73.34
2022-09-13T18:15:17.630Z,73.57
2022-09-13T18:18:19.673Z,73.61
2022-09-13T18:21:23.960Z,73.71
2022-09-13T18:24:25.859Z,73.97
2022-09-13T18:27:27.952Z,73.96
2022-09-13T18:30:29.933Z,74.14
2022-09-13T18:33:32.376Z,74.35
2022-09-13T18:36:35.282Z,74.39
2022-09-13T18:39:37.104Z,74.52
2022-09-13T18:42:40.926Z,74.56
2022-09-13T18:45:42.895Z,74.79
2022-09-13T18:48:47.116Z,74.93
2022-09-13T18:51:49.765Z,75.16
2022-09-13T18:54:51.474Z,75.28
2022-09-13T18:57:53.145Z,75.36
2022-09-13T19:01:03.238Z,75.45
2022-09-13T19:04:13.727Z,75.48
2022-09-13T19:07:15.315Z,75.56
2022-09-13T19:10:17.276Z,75.68
2022-09-13T19:13:19.162Z,75.78
2022-09-13T19:16:21.564Z,75.73
2022-09-13T19:19:24.666Z,75.92
2022-09-13T19:22:26.497Z,75.99
2022-09-13T19:25:30.305Z,76.11
2022-09-13T19:28:32.264Z,76.24
2022-09-13T19:31:36.575Z,76.33
2022-09-13T19:34:38.391Z,76.32
2022-09-13T19:37:39.989Z,76.65
2022-09-13T19:40:41.718Z,76.60
2022-09-13T19:43:44.600Z,76.74
2022-09-13T19:46:46.438Z,76.85
2022-09-13T19:49:50.445Z,76.95
2022-09-13T19:52:52.121Z,77.07
2022-09-13T19:55:55.279Z,77.17
2022-09-13T19:58:58.390Z,77.27
2022-09-13T20:02:00.153Z,77.32
2022-09-13T20:05:02.113Z,77.43
2022-09-13T20:08:04.048Z,77.64
2022-09-13T20:11:10.861Z,77.64
2022-09-13T20:14:14.840Z,77.75
2022-09-13T20:17:16.621Z,77.69
2022-09-13T20:20:18.889Z,77.80
2022-09-13T20:23:20.636Z,77.90
2022-09-13T20:26:26.975Z,77.97
2022-09-13T20:29:28.834Z,78.05
2022-09-13T20:32:31.419Z,78.07
2022-09-13T20:35:37.058Z,78.27
2022-09-13T20:38:39.430Z,78.50
2022-09-13T20:41:41.872Z,78.44
2022-09-13T20:44:45.999Z,78.63
2022-09-13T20:47:48.125Z,78.71
2022-09-13T20:51:01.153Z,78.70
2022-09-13T20:54:03.073Z,78.84
2022-09-13T20:57:04.977Z,79.08
2022-09-13T21:00:08.718Z,79.07
2022-09-13T21:03:11.245Z,79.25
2022-09-13T21:06:13.429Z,79.40
2022-09-13T21:09:15.474Z,79.45
2022-09-13T21:12:17.629Z,79.47
2022-09-13T21:15:20.058Z,79.64
2022-09-13T21:18:21.701Z,79.73
2022-09-13T21:21:26.087Z,79.87
2022-09-13T21:24:27.838Z,79.94
2022-09-13T21:27:29.873Z,80.06
2022-09-13T21:30:31.568Z,80.13
2022-09-13T21:33:34.041Z,80.13
2022-09-13T21:36:36.181Z,80.20
2022-09-13T21:39:37.830Z,80.45
2022-09-13T21:42:39.550Z,80.42
2022-09-13T21:45:41.329Z,80.54
2022-09-13T21:48:47.316Z,80.73
2022-09-13T21:51:49.997Z,80.85
2022-09-13T21:54:52.691Z,80.81
2022-09-13T21:57:54.520Z,80.87
2022-09-13T22:01:04.868Z,81.10
2022-09-13T22:04:07.591Z,81.18
2022-09-13T22:07:09.273Z,81.16
2022-09-13T22:10:11.205Z,81.21
2022-09-13T22:13:12.849Z,81.16
2022-09-13T22:16:26.252Z,81.21
2022-09-13T22:19:28.127Z,81.28
2022-09-13T22:22:29.893Z,81.31
2022-09-13T22:25:32.382Z,81.33
2022-09-13T22:28:34.869Z,81.32
2022-09-13T22:31:39.545Z,81.31
2022-09-13T22:34:41.304Z,81.34
2022-09-13T22:37:43.338Z,81.45
2022-09-13T22:40:45.049Z,81.35
2022-09-13T22:43:47.020Z,81.50
2022-09-13T22:46:48.762Z,81.48
2022-09-13T22:49:50.529Z,81.36
2022-09-13T22:52:52.292Z,81.35
2022-09-13T22:55:54.129Z,81.17
2022-09-13T22:58:58.228Z,81.40
2022-09-13T23:01:59.938Z,81.44
2022-09-13T23:05:21.934Z,81.56
2022-09-13T23:08:39.544Z,81.74
2022-09-13T23:11:41.234Z,81.55
2022-09-13T23:14:46.154Z,81.72
2022-09-13T23:17:48.106Z,81.71
2022-09-13T23:20:56.546Z,81.53
2022-09-13T23:23:59.893Z,81.41
2022-09-13T23:27:01.719Z,81.37
2022-09-13T23:30:03.712Z,81.63
2022-09-13T23:33:08.311Z,81.73
2022-09-13T23:36:12.221Z,81.91
2022-09-13T23:39:17.011Z,82.08
2022-09-13T23:42:18.954Z,82.07
2022-09-13T23:45:20.685Z,82.01
2022-09-13T23:48:23.242Z,82.11
2022-09-13T23:51:26.660Z,82.16
2022-09-13T23:54:28.437Z,82.12
2022-09-13T23:57:30.254Z,82.19
